Time;durP1;ratioP1;P1;durP2;ratioP2;P2;SDS_P1;SDS_P2;PMS_P1;PMS_P2;Temp;Humidity;BMP_temperature;BMP_pressure;BME280_temperature;BME280_humidity;BME280_pressure;Samples;Min_cycle;Max_cycle;Signal;HPM_P1;HPM_P2
2022/03/31 00:00:44;;;;;;;38.20;23.33;;;7.10;99.90;;;;;;5046946;28;20037;-75
2022/03/31 00:03:15;;;;;;;35.95;22.23;;;7.10;99.90;;;;;;5041997;28;20025;-75
2022/03/31 00:05:42;;;;;;;36.25;22.45;;;7.00;99.90;;;;;;5032447;28;20467;-75
2022/03/31 00:08:19;;;;;;;41.05;24.10;;;7.00;99.90;;;;;;5045167;28;20029;-75
2022/03/31 00:10:50;;;;;;;38.00;22.92;;;7.00;99.90;;;;;;5031706;28;20489;-75
2022/03/31 00:13:26;;;;;;;39.67;22.60;;;7.00;99.90;;;;;;5044486;28;20028;-75
2022/03/31 00:15:54;;;;;;;34.88;21.63;;;7.10;99.90;;;;;;5053013;28;20029;-75
2022/03/31 00:18:19;;;;;;;34.83;20.67;;;7.00;99.90;;;;;;5052405;28;20536;-74
2022/03/31 00:20:46;;;;;;;35.40;22.50;;;7.10;99.90;;;;;;5052750;28;20037;-76
2022/03/31 00:23:11;;;;;;;34.97;21.48;;;7.10;99.90;;;;;;5052707;28;20048;-75
2022/03/31 00:25:37;;;;;;;31.77;20.05;;;7.00;99.90;;;;;;5038957;28;20498;-75
2022/03/31 00:28:03;;;;;;;30.52;20.20;;;7.10;99.90;;;;;;5032808;28;20029;-76
2022/03/31 00:30:30;;;;;;;30.17;19.42;;;7.00;99.90;;;;;;5032112;28;20021;-75
2022/03/31 00:32:57;;;;;;;30.05;19.77;;;7.00;99.90;;;;;;5032889;28;20053;-75
2022/03/31 00:35:23;;;;;;;27.20;18.10;;;7.00;99.90;;;;;;5031928;28;20026;-75
2022/03/31 00:37:48;;;;;;;27.10;18.50;;;7.00;99.90;;;;;;5032559;28;20032;-77
2022/03/31 00:40:18;;;;;;;29.17;17.85;;;7.00;99.90;;;;;;5032653;28;20104;-76
2022/03/31 00:42:49;;;;;;;30.95;18.83;;;7.00;99.90;;;;;;5043417;28;20036;-75
2022/03/31 00:45:32;;;;;;;25.63;17.00;;;7.00;99.90;;;;;;5042673;28;20086;-76
2022/03/31 00:47:58;;;;;;;27.13;17.30;;;7.00;99.90;;;;;;5051935;28;20525;-75
2022/03/31 00:50:25;;;;;;;25.70;16.25;;;7.00;99.90;;;;;;5019243;28;20054;-75
2022/03/31 00:52:51;;;;;;;27.67;17.02;;;7.00;99.90;;;;;;5015864;28;20471;-74
2022/03/31 00:55:19;;;;;;;24.75;16.95;;;6.90;99.90;;;;;;5012679;28;20104;-75
2022/03/31 00:57:46;;;;;;;27.83;16.55;;;6.90;99.90;;;;;;5025923;28;20060;-75
2022/03/31 01:00:14;;;;;;;26.45;17.30;;;6.80;99.90;;;;;;5018977;28;20034;-75
2022/03/31 01:02:43;;;;;;;23.65;16.10;;;6.70;99.90;;;;;;4990462;28;20044;-76
2022/03/31 01:05:09;;;;;;;24.58;16.92;;;6.70;99.90;;;;;;5015696;28;20033;-76
2022/03/31 01:07:37;;;;;;;20.77;14.50;;;6.70;99.90;;;;;;5021362;28;20025;-76
2022/03/31 01:10:04;;;;;;;25.88;15.82;;;6.70;99.90;;;;;;5014542;28;20097;-76
2022/03/31 01:12:31;;;;;;;22.73;14.50;;;6.70;99.90;;;;;;5015789;28;20025;-75
2022/03/31 01:15:14;;;;;;;21.38;14.90;;;6.60;99.90;;;;;;5031933;28;20036;-76
2022/03/31 01:17:42;;;;;;;23.92;14.80;;;6.60;99.90;;;;;;5031015;28;20018;-75
2022/03/31 01:20:11;;;;;;;23.92;15.95;;;6.60;99.90;;;;;;5032014;28;20071;-75
2022/03/31 01:22:38;;;;;;;24.90;15.32;;;6.50;99.90;;;;;;5031041;28;20030;-76
2022/03/31 01:25:06;;;;;;;23.23;15.82;;;6.50;99.90;;;;;;5023987;28;20030;-76
2022/03/31 01:27:37;;;;;;;24.67;15.00;;;6.50;99.90;;;;;;5011637;28;20026;-76
2022/03/31 01:30:04;;;;;;;;;;;6.50;99.90;;;;;;5012638;28;20097;-76
2022/03/31 01:32:30;;;;;;;20.65;14.00;;;6.40;99.90;;;;;;5011433;28;19905;-76
2022/03/31 01:34:56;;;;;;;23.38;15.27;;;6.40;99.90;;;;;;5012007;28;20168;-76
2022/03/31 01:37:23;;;;;;;20.95;14.02;;;6.40;99.90;;;;;;5011440;28;20033;-74
2022/03/31 01:39:48;;;;;;;20.05;14.07;;;6.40;99.90;;;;;;5013502;28;20037;-76
2022/03/31 01:42:14;;;;;;;21.35;13.88;;;6.40;99.90;;;;;;5017915;28;20073;-75
2022/03/31 01:44:40;;;;;;;20.95;15.60;;;;;;;;;;5021222;28;20261;-76
2022/03/31 01:47:07;;;;;;;25.05;15.65;;;6.30;99.90;;;;;;5016341;28;20034;-77
2022/03/31 01:49:34;;;;;;;24.70;16.10;;;6.30;99.90;;;;;;5017968;28;20100;-77
2022/03/31 01:52:00;;;;;;;21.98;15.00;;;6.30;99.90;;;;;;5018641;28;20096;-78
2022/03/31 01:54:25;;;;;;;22.80;15.50;;;6.30;99.90;;;;;;5009777;28;20033;-78
2022/03/31 01:56:51;;;;;;;22.42;15.80;;;6.20;99.90;;;;;;5024073;28;20022;-78
2022/03/31 01:59:17;;;;;;;22.52;15.27;;;6.20;99.90;;;;;;5017816;28;20022;-77
2022/03/31 02:01:42;;;;;;;27.65;16.60;;;6.10;99.90;;;;;;5024649;28;20021;-77
2022/03/31 02:04:08;;;;;;;26.02;16.52;;;6.10;99.90;;;;;;5027396;28;20387;-78
2022/03/31 02:06:34;;;;;;;26.02;16.42;;;6.10;99.90;;;;;;5027921;28;20068;-77
2022/03/31 02:08:59;;;;;;;28.15;18.20;;;6.10;99.90;;;;;;5020921;28;20037;-77
2022/03/31 02:11:25;;;;;;;24.02;16.50;;;6.10;99.90;;;;;;5030721;28;20113;-74
2022/03/31 02:13:53;;;;;;;24.58;16.80;;;6.10;99.90;;;;;;5017063;28;20022;-77
2022/03/31 02:16:18;;;;;;;26.35;16.48;;;6.20;99.90;;;;;;4998368;28;20038;-76
2022/03/31 02:18:45;;;;;;;25.70;16.50;;;6.20;99.90;;;;;;5014611;28;20453;-75
2022/03/31 02:21:11;;;;;;;23.38;16.45;;;6.20;99.90;;;;;;5015602;28;20034;-75
2022/03/31 02:23:37;;;;;;;25.35;16.48;;;6.30;99.90;;;;;;4997100;28;20026;-76
2022/03/31 02:26:03;;;;;;;22.75;15.70;;;6.30;99.90;;;;;;5032702;28;20041;-76
2022/03/31 02:28:28;;;;;;;23.27;15.70;;;6.30;99.90;;;;;;5035324;28;20029;-76
2022/03/31 02:30:54;;;;;;;21.13;14.85;;;6.20;99.90;;;;;;5040674;28;20030;-76
2022/03/31 02:33:20;;;;;;;22.17;14.95;;;6.20;99.90;;;;;;5043678;28;20035;-77
2022/03/31 02:35:45;;;;;;;22.08;14.82;;;6.30;99.90;;;;;;5034307;28;20030;-78
2022/03/31 02:38:12;;;;;;;22.23;16.00;;;6.20;99.90;;;;;;5036094;28;20051;-76
2022/03/31 02:40:37;;;;;;;23.00;16.45;;;6.10;99.90;;;;;;5034436;28;20026;-77
2022/03/31 02:43:03;;;;;;;21.88;15.63;;;6.10;99.90;;;;;;5022059;28;20136;-77
2022/03/31 02:45:29;;;;;;;27.08;17.08;;;6.20;99.90;;;;;;5035576;28;20483;-77
2022/03/31 02:47:54;;;;;;;24.55;16.45;;;6.20;99.90;;;;;;4996941;28;20116;-77
2022/03/31 02:50:20;;;;;;;21.20;15.40;;;6.20;99.90;;;;;;5028411;28;20052;-77
2022/03/31 02:55:31;;;;;;;25.13;16.80;;;6.30;99.90;;;;;;5034983;28;20072;-76
2022/03/31 02:58:03;;;;;;;28.83;18.88;;;6.20;99.90;;;;;;5052915;28;20066;-77
2022/03/31 03:00:30;;;;;;;25.40;18.30;;;6.20;99.90;;;;;;5054521;28;20351;-77
2022/03/31 03:02:57;;;;;;;26.73;18.60;;;6.20;99.90;;;;;;5057174;28;20025;-76
2022/03/31 03:05:22;;;;;;;25.15;17.52;;;6.20;99.90;;;;;;5044515;28;20041;-74
2022/03/31 03:07:48;;;;;;;26.33;18.20;;;6.10;99.90;;;;;;5060763;28;20074;-77
2022/03/31 03:10:14;;;;;;;26.40;18.85;;;6.00;99.90;;;;;;5056950;28;20048;-77
2022/03/31 03:12:44;;;;;;;26.02;17.92;;;6.00;99.90;;;;;;5039471;28;20083;-77
2022/03/31 03:15:10;;;;;;;27.83;18.30;;;5.90;99.90;;;;;;5062518;28;20029;-77
2022/03/31 03:17:43;;;;;;;27.08;18.85;;;5.90;99.90;;;;;;5045190;28;20025;-78
2022/03/31 03:20:14;;;;;;;27.15;18.98;;;5.80;99.90;;;;;;5038290;28;20029;-78
2022/03/31 03:22:51;;;;;;;26.75;17.45;;;5.80;99.90;;;;;;5044727;28;20028;-77
2022/03/31 03:25:18;;;;;;;30.50;19.35;;;5.80;99.90;;;;;;5053360;28;20025;-77
2022/03/31 03:27:46;;;;;;;29.10;19.58;;;5.80;99.90;;;;;;5035389;28;20099;-77
2022/03/31 03:30:12;;;;;;;27.80;18.88;;;5.80;99.90;;;;;;5051043;28;20063;-77
2022/03/31 03:32:38;;;;;;;30.33;19.85;;;5.70;99.90;;;;;;5034181;28;20033;-77
2022/03/31 03:35:09;;;;;;;28.60;19.52;;;5.70;99.90;;;;;;5037019;28;20047;-77
2022/03/31 03:37:36;;;;;;;30.38;19.33;;;5.70;99.90;;;;;;5051797;28;20025;-77
2022/03/31 03:40:05;;;;;;;28.02;19.25;;;5.70;99.90;;;;;;5054106;28;20056;-77
2022/03/31 03:42:31;;;;;;;25.38;18.17;;;5.70;99.90;;;;;;5048742;28;20469;-77
2022/03/31 03:44:58;;;;;;;27.70;19.20;;;5.70;99.90;;;;;;5052019;28;20033;-77
2022/03/31 03:47:24;;;;;;;32.28;20.48;;;5.60;99.90;;;;;;5049297;28;20043;-78
2022/03/31 03:49:49;;;;;;;28.23;19.25;;;5.60;99.90;;;;;;5050623;28;20049;-78
2022/03/31 03:52:16;;;;;;;27.80;18.70;;;5.50;99.90;;;;;;5041162;28;20026;-77
2022/03/31 03:54:42;;;;;;;28.52;18.77;;;5.60;99.90;;;;;;5040866;28;20108;-77
2022/03/31 03:57:08;;;;;;;31.67;20.20;;;5.60;99.90;;;;;;5033277;28;20113;-77
2022/03/31 03:59:34;;;;;;;30.73;20.00;;;5.60;99.90;;;;;;5032478;28;20072;-78
2022/03/31 04:01:59;;;;;;;30.90;20.70;;;5.60;99.90;;;;;;5042032;28;20526;-77
2022/03/31 04:04:27;;;;;;;29.85;20.10;;;5.60;99.90;;;;;;5034318;28;20031;-74
2022/03/31 04:06:53;;;;;;;25.73;18.77;;;5.60;99.90;;;;;;5038256;28;20470;-78
2022/03/31 04:09:18;;;;;;;29.70;20.15;;;5.60;99.90;;;;;;5041591;28;20026;-78
2022/03/31 04:11:44;;;;;;;28.13;19.48;;;5.60;99.90;;;;;;5034391;28;20089;-76
2022/03/31 04:14:09;;;;;;;28.25;19.80;;;5.40;99.90;;;;;;5057425;28;20033;-76
2022/03/31 04:16:35;;;;;;;24.98;18.65;;;5.40;99.90;;;;;;5052898;28;20036;-76
2022/03/31 04:19:03;;;;;;;27.55;19.35;;;5.40;99.90;;;;;;5052983;28;20522;-76
2022/03/31 04:21:29;;;;;;;27.25;19.20;;;5.50;99.90;;;;;;5051973;28;20390;-74
2022/03/31 04:23:54;;;;;;;27.73;19.60;;;5.50;99.90;;;;;;5051976;28;20039;-76
2022/03/31 04:26:20;;;;;;;28.60;19.38;;;5.50;99.90;;;;;;5032613;28;20033;-77
2022/03/31 04:28:46;;;;;;;28.23;19.88;;;5.50;99.90;;;;;;5031744;28;20032;-76
2022/03/31 04:31:11;;;;;;;27.83;19.55;;;5.50;99.90;;;;;;5032777;28;20056;-76
2022/03/31 04:33:37;;;;;;;28.17;19.92;;;5.50;99.90;;;;;;5032015;28;20459;-76
2022/03/31 04:36:03;;;;;;;28.88;20.20;;;5.50;99.90;;;;;;5032133;28;20037;-76
2022/03/31 04:38:28;;;;;;;30.48;20.88;;;5.40;99.90;;;;;;5032036;28;20107;-73
2022/03/31 04:40:54;;;;;;;28.10;20.45;;;5.40;99.90;;;;;;5032499;28;20030;-75
2022/03/31 04:43:19;;;;;;;28.85;20.40;;;5.30;99.90;;;;;;5032594;28;20312;-76
2022/03/31 04:45:45;;;;;;;30.20;19.33;;;5.30;99.90;;;;;;5045561;28;20458;-76
2022/03/31 04:48:11;;;;;;;29.63;20.23;;;5.20;99.90;;;;;;5050882;28;20372;-78
2022/03/31 04:50:37;;;;;;;32.03;21.55;;;5.30;99.90;;;;;;5023411;28;20053;-78
2022/03/31 04:53:03;;;;;;;28.27;19.35;;;5.20;99.90;;;;;;5030836;28;20152;-77
2022/03/31 04:55:29;;;;;;;29.65;20.52;;;5.20;99.90;;;;;;5019149;28;20441;-73
2022/03/31 04:57:55;;;;;;;31.02;20.42;;;5.10;99.90;;;;;;5013298;28;20490;-76
2022/03/31 05:00:20;;;;;;;30.48;20.48;;;5.20;99.90;;;;;;5028745;28;20026;-76
2022/03/31 05:02:46;;;;;;;30.55;21.48;;;5.20;99.90;;;;;;4995593;28;20042;-76
2022/03/31 05:05:12;;;;;;;27.02;20.13;;;5.10;99.90;;;;;;5013591;28;20034;-76
2022/03/31 05:07:39;;;;;;;29.25;20.27;;;5.10;99.90;;;;;;5026279;28;20025;-73
2022/03/31 05:10:05;;;;;;;30.77;21.10;;;5.10;99.90;;;;;;5032080;28;20075;-73
2022/03/31 05:12:31;;;;;;;28.88;20.45;;;5.00;99.90;;;;;;4995718;28;20093;-74
2022/03/31 05:14:56;;;;;;;27.38;20.10;;;5.10;99.90;;;;;;5029515;28;20064;-75
2022/03/31 05:17:22;;;;;;;30.27;19.98;;;5.10;99.90;;;;;;5013102;28;20053;-75
2022/03/31 05:19:48;;;;;;;28.17;20.17;;;5.10;99.90;;;;;;5023092;28;20045;-73
2022/03/31 05:22:14;;;;;;;29.88;21.27;;;5.10;99.90;;;;;;5032196;28;20029;-75
2022/03/31 05:24:40;;;;;;;27.20;20.10;;;5.10;99.90;;;;;;5031544;28;20079;-73
2022/03/31 05:27:06;;;;;;;25.98;19.77;;;5.10;99.90;;;;;;5030665;28;20037;-74
2022/03/31 05:29:34;;;;;;;28.92;20.20;;;5.10;99.90;;;;;;5021857;28;20025;-75
2022/03/31 05:32:00;;;;;;;28.63;19.33;;;5.20;99.90;;;;;;5006494;28;20034;-80
2022/03/31 05:34:26;;;;;;;27.20;19.48;;;5.20;99.90;;;;;;5013791;28;20087;-77
2022/03/31 05:36:52;;;;;;;26.13;19.30;;;5.20;99.90;;;;;;4997386;28;20037;-80
2022/03/31 05:39:18;;;;;;;29.08;20.27;;;5.20;99.90;;;;;;5016775;28;20109;-74
2022/03/31 05:41:43;;;;;;;28.45;19.75;;;5.20;99.90;;;;;;5020824;28;20104;-73
2022/03/31 05:44:09;;;;;;;29.08;20.40;;;5.10;99.90;;;;;;5030155;28;20037;-73
2022/03/31 05:46:35;;;;;;;28.42;18.92;;;5.10;99.90;;;;;;5005454;28;20041;-74
2022/03/31 05:49:02;;;;;;;25.63;18.80;;;5.20;99.90;;;;;;5015860;28;20377;-74
2022/03/31 05:51:28;;;;;;;26.88;19.58;;;5.20;99.90;;;;;;5022512;28;20033;-75
2022/03/31 05:53:54;;;;;;;27.80;19.55;;;5.20;99.90;;;;;;5035460;28;20036;-83
2022/03/31 05:56:20;;;;;;;32.25;19.67;;;5.20;99.90;;;;;;5026884;28;20037;-77
2022/03/31 05:58:47;;;;;;;29.58;19.90;;;5.20;99.90;;;;;;5024293;28;20034;-80
2022/03/31 06:01:13;;;;;;;27.58;19.88;;;5.20;99.90;;;;;;5029163;28;20045;-79
2022/03/31 06:03:39;;;;;;;28.80;19.60;;;5.30;99.90;;;;;;5034728;28;20033;-77
2022/03/31 06:06:04;;;;;;;25.45;19.52;;;5.30;99.90;;;;;;5027496;28;20038;-82
2022/03/31 06:08:30;;;;;;;30.33;19.10;;;5.30;99.90;;;;;;5018369;28;20026;-78
2022/03/31 06:10:56;;;;;;;27.33;18.85;;;5.30;99.90;;;;;;5021552;28;20385;-77
2022/03/31 06:13:22;;;;;;;25.42;18.80;;;5.40;99.90;;;;;;5017833;28;20636;-74
2022/03/31 06:15:47;;;;;;;26.13;19.80;;;5.40;99.90;;;;;;5024696;28;20436;-80
2022/03/31 06:18:13;;;;;;;27.90;18.60;;;5.40;99.90;;;;;;5052826;28;20033;-76
2022/03/31 06:20:39;;;;;;;28.92;19.77;;;5.50;99.90;;;;;;5046109;28;20021;-79
2022/03/31 06:23:04;;;;;;;28.17;19.77;;;5.50;99.90;;;;;;5047066;28;20030;-79
2022/03/31 06:25:30;;;;;;;29.02;20.02;;;5.40;99.90;;;;;;5055803;28;20041;-72
2022/03/31 06:27:56;;;;;;;29.42;20.48;;;5.40;99.90;;;;;;5057951;28;20081;-80
2022/03/31 06:30:22;;;;;;;28.60;19.35;;;5.30;99.90;;;;;;5039352;28;20053;-80
2022/03/31 06:32:49;;;;;;;28.13;20.08;;;5.30;99.90;;;;;;5037472;28;20033;-82
2022/03/31 06:35:14;;;;;;;30.15;20.58;;;5.30;99.90;;;;;;5029641;28;20061;-79
2022/03/31 06:37:45;;;;;;;28.42;19.98;;;5.50;99.90;;;;;;5026964;28;20502;-81
2022/03/31 06:40:15;;;;;;;28.85;20.38;;;5.50;99.90;;;;;;5032495;28;20107;-80
2022/03/31 06:42:42;;;;;;;27.55;19.27;;;5.40;99.90;;;;;;5024326;28;20048;-81
2022/03/31 06:45:12;;;;;;;27.15;19.98;;;5.40;99.90;;;;;;5029332;28;20471;-82
2022/03/31 06:47:39;;;;;;;30.50;20.77;;;5.40;99.90;;;;;;5015169;28;20109;-80
2022/03/31 06:50:06;;;;;;;29.42;20.02;;;5.40;99.90;;;;;;5036580;28;20516;-81
2022/03/31 06:52:31;;;;;;;27.10;19.83;;;5.50;99.90;;;;;;5036874;28;20028;-74
2022/03/31 06:54:57;;;;;;;32.55;20.55;;;5.40;99.90;;;;;;5054279;28;20402;-80
2022/03/31 06:57:23;;;;;;;26.33;18.85;;;5.60;99.90;;;;;;5055359;28;20029;-81
2022/03/31 06:59:49;;;;;;;28.67;20.80;;;5.70;99.90;;;;;;5041342;28;20033;-82
2022/03/31 07:02:15;;;;;;;25.77;19.30;;;5.70;99.90;;;;;;5062689;28;20029;-80
2022/03/31 07:04:41;;;;;;;30.15;20.27;;;5.80;99.90;;;;;;5043244;28;20047;-81
2022/03/31 07:07:07;;;;;;;26.88;19.30;;;5.80;99.90;;;;;;5059677;28;20051;-81
2022/03/31 07:09:33;;;;;;;28.60;19.73;;;5.70;99.90;;;;;;5064474;28;20025;-73
2022/03/31 07:11:59;;;;;;;29.35;19.52;;;5.80;99.90;;;;;;5062867;28;20032;-82
2022/03/31 07:14:25;;;;;;;29.30;19.15;;;5.80;99.90;;;;;;5053816;28;20037;-81
2022/03/31 07:16:51;;;;;;;26.02;18.45;;;5.90;99.90;;;;;;5053374;28;20056;-80
2022/03/31 07:19:17;;;;;;;26.05;18.83;;;5.90;99.90;;;;;;5053358;28;20040;-80
2022/03/31 07:21:43;;;;;;;27.23;18.63;;;6.00;99.90;;;;;;5035408;28;20030;-79
2022/03/31 07:24:09;;;;;;;26.13;18.23;;;6.10;99.90;;;;;;5034182;28;20029;-75
2022/03/31 07:26:35;;;;;;;26.00;18.50;;;6.20;99.90;;;;;;5050685;28;20485;-72
2022/03/31 07:29:01;;;;;;;24.83;17.52;;;6.40;99.90;;;;;;5053776;28;20033;-81
2022/03/31 07:31:28;;;;;;;27.25;18.20;;;6.40;99.90;;;;;;5049024;28;20037;-81
2022/03/31 07:33:55;;;;;;;31.48;19.30;;;6.50;99.90;;;;;;5051643;28;20035;-81
2022/03/31 07:36:20;;;;;;;27.67;18.45;;;6.60;99.90;;;;;;5054284;28;20095;-81
2022/03/31 07:38:46;;;;;;;26.88;18.85;;;6.60;99.90;;;;;;5038876;28;20497;-80
2022/03/31 07:41:14;;;;;;;27.55;20.05;;;6.70;99.90;;;;;;5041687;28;20040;-80
2022/03/31 07:43:40;;;;;;;27.88;19.80;;;6.70;99.90;;;;;;5043685;28;20030;-80
2022/03/31 07:46:05;;;;;;;27.20;19.23;;;6.80;99.90;;;;;;5050656;28;20025;-80
2022/03/31 07:48:31;;;;;;;29.35;19.38;;;6.70;99.90;;;;;;5053825;28;20112;-80
2022/03/31 07:50:59;;;;;;;27.27;18.38;;;6.90;99.90;;;;;;5050745;28;20095;-79
2022/03/31 07:53:26;;;;;;;25.08;18.58;;;6.90;99.90;;;;;;5047711;28;20433;-82
2022/03/31 07:55:52;;;;;;;25.73;19.27;;;7.00;99.90;;;;;;5053308;28;20473;-82
2022/03/31 07:58:18;;;;;;;26.60;18.88;;;7.00;99.90;;;;;;5048077;28;20018;-77
2022/03/31 08:00:50;;;;;;;25.05;18.58;;;7.10;99.90;;;;;;5033363;28;20032;-82
2022/03/31 08:03:17;;;;;;;28.42;20.40;;;7.10;99.90;;;;;;5039440;28;20504;-81
2022/03/31 08:05:42;;;;;;;25.17;18.60;;;7.20;99.90;;;;;;5033161;28;20051;-79
2022/03/31 08:08:08;;;;;;;23.95;18.10;;;7.40;99.90;;;;;;5033941;28;20370;-80
2022/03/31 08:10:34;;;;;;;26.13;18.88;;;7.40;99.90;;;;;;5034352;28;20188;-81
2022/03/31 08:12:59;;;;;;;26.90;19.27;;;7.40;99.90;;;;;;5041675;28;20455;-81
2022/03/31 08:15:25;;;;;;;27.23;19.63;;;7.30;99.90;;;;;;5055291;28;20028;-81
2022/03/31 08:17:51;;;;;;;26.27;19.55;;;7.30;99.90;;;;;;5055864;28;20044;-82
2022/03/31 08:20:18;;;;;;;25.40;19.45;;;7.30;99.90;;;;;;5048499;28;20029;-83
2022/03/31 08:22:44;;;;;;;26.73;19.15;;;7.20;99.90;;;;;;5032779;28;20029;-81
2022/03/31 08:25:10;;;;;;;26.83;18.77;;;7.20;99.90;;;;;;5033481;28;20076;-80
2022/03/31 08:27:37;;;;;;;26.85;18.55;;;7.20;99.90;;;;;;5033302;28;20026;-73
2022/03/31 08:30:11;;;;;;;28.98;20.35;;;7.10;99.90;;;;;;5032921;28;20026;-81
2022/03/31 08:32:39;;;;;;;28.75;20.38;;;7.10;99.90;;;;;;5032451;28;20021;-73
2022/03/31 08:35:07;;;;;;;31.58;21.42;;;7.10;99.90;;;;;;5042241;28;20108;-82
2022/03/31 08:37:33;;;;;;;29.67;21.33;;;7.10;99.90;;;;;;5046843;28;20533;-83
2022/03/31 08:39:58;;;;;;;29.80;20.80;;;7.10;99.90;;;;;;5056663;28;20025;-80
2022/03/31 08:42:24;;;;;;;31.90;21.63;;;7.00;99.90;;;;;;5056919;28;20064;-80
2022/03/31 08:44:51;;;;;;;27.48;19.83;;;7.00;99.90;;;;;;5048378;28;20084;-80
2022/03/31 08:47:18;;;;;;;31.73;21.83;;;7.00;99.90;;;;;;5040263;28;20043;-78
2022/03/31 08:49:46;;;;;;;31.13;22.02;;;7.10;99.90;;;;;;5051898;28;20060;-80
2022/03/31 08:52:12;;;;;;;30.30;21.67;;;7.20;99.90;;;;;;5045951;28;20113;-83
2022/03/31 08:54:39;;;;;;;27.88;20.33;;;7.30;99.90;;;;;;5032852;28;20034;-72
2022/03/31 08:57:05;;;;;;;28.80;21.25;;;7.30;99.90;;;;;;5032953;28;20033;-80
2022/03/31 08:59:31;;;;;;;28.17;20.58;;;7.40;99.90;;;;;;5038236;28;20104;-80
2022/03/31 09:01:57;;;;;;;30.35;20.48;;;7.50;99.90;;;;;;5037300;28;20029;-80
2022/03/31 09:04:24;;;;;;;28.10;21.48;;;7.60;99.90;;;;;;5033897;28;20025;-78
2022/03/31 09:07:08;;;;;;;29.65;21.35;;;7.90;99.90;;;;;;5049115;28;20109;-81
2022/03/31 09:09:47;;;;;;;29.23;20.55;;;8.10;99.90;;;;;;5052489;28;20083;-81
2022/03/31 09:12:12;;;;;;;29.23;20.52;;;8.40;99.90;;;;;;5051916;28;20040;-80
2022/03/31 09:14:38;;;;;;;31.48;21.92;;;8.50;99.90;;;;;;5041519;28;20026;-71
2022/03/31 09:17:15;;;;;;;29.33;20.33;;;8.80;99.90;;;;;;5063280;28;20044;-79
2022/03/31 09:19:42;;;;;;;29.83;21.02;;;8.90;99.90;;;;;;5072686;28;20033;-71
2022/03/31 09:22:09;;;;;;;26.23;18.50;;;9.00;99.90;;;;;;5074909;28;20025;-76
2022/03/31 09:24:34;;;;;;;29.00;19.50;;;9.00;99.90;;;;;;5062483;28;20405;-80
2022/03/31 09:27:02;;;;;;;27.40;19.08;;;9.10;99.90;;;;;;5053229;28;20029;-80
2022/03/31 09:29:30;;;;;;;29.60;21.48;;;9.20;99.90;;;;;;5036504;28;20124;-81
2022/03/31 09:32:12;;;;;;;30.10;19.50;;;9.20;99.90;;;;;;5031406;28;20030;-81
2022/03/31 09:34:47;;;;;;;26.85;19.88;;;9.20;99.90;;;;;;5030607;28;20464;-72
2022/03/31 09:37:13;;;;;;;28.38;19.48;;;9.20;99.90;;;;;;5033140;28;20104;-81
2022/03/31 09:39:40;;;;;;;30.38;19.55;;;9.20;99.90;;;;;;5031490;28;20026;-72
2022/03/31 09:42:13;;;;;;;31.23;19.55;;;9.20;99.90;;;;;;5032833;28;20033;-80
2022/03/31 09:44:42;;;;;;;26.52;19.60;;;9.50;99.90;;;;;;5043516;28;20029;-74
2022/03/31 09:47:07;;;;;;;27.38;20.25;;;9.60;99.90;;;;;;5034033;28;20025;-81
2022/03/31 09:49:33;;;;;;;26.90;18.55;;;9.80;99.90;;;;;;5047952;28;20061;-81
2022/03/31 09:52:01;;;;;;;25.80;19.42;;;10.10;99.90;;;;;;5049159;28;20550;-81
2022/03/31 09:54:30;;;;;;;26.17;18.70;;;10.50;99.90;;;;;;5045829;28;20393;-81
2022/03/31 09:56:57;;;;;;;24.08;18.35;;;10.70;99.90;;;;;;5051101;28;20126;-79
2022/03/31 09:59:41;;;;;;;29.02;20.02;;;10.80;99.90;;;;;;5053424;28;20025;-81
2022/03/31 10:02:08;;;;;;;26.17;19.33;;;11.00;99.90;;;;;;5051416;28;20104;-81
2022/03/31 10:04:34;;;;;;;30.77;19.95;;;11.10;99.90;;;;;;5032996;28;20033;-81
2022/03/31 10:07:02;;;;;;;27.42;19.30;;;11.10;99.90;;;;;;5031020;28;20105;-80
2022/03/31 10:09:29;;;;;;;25.85;19.27;;;11.30;99.90;;;;;;5031856;28;20104;-80
2022/03/31 10:12:26;;;;;;;36.38;20.10;;;11.40;99.90;;;;;;5030951;28;20175;-80
2022/03/31 10:15:20;;;;;;;27.40;20.80;;;11.40;99.90;;;;;;5033107;28;20025;-80
2022/03/31 10:17:49;;;;;;;32.30;20.85;;;11.50;99.90;;;;;;5037309;28;20120;-76
2022/03/31 10:20:16;;;;;;;27.27;20.15;;;11.70;99.90;;;;;;5037095;28;20030;-83
2022/03/31 10:25:42;;;;;;;32.03;18.25;;;11.90;99.90;;;;;;5041041;28;20068;-73
2022/03/31 10:28:16;;;;;;;26.35;18.85;;;11.90;99.90;;;;;;5048732;28;20040;-83
2022/03/31 10:31:00;;;;;;;27.33;19.33;;;12.00;99.90;;;;;;5043237;28;20021;-72
2022/03/31 10:33:38;;;;;;;28.48;20.02;;;12.00;99.90;;;;;;5051556;28;20032;-82
2022/03/31 10:36:10;;;;;;;27.02;19.27;;;12.00;99.90;;;;;;5036562;28;20021;-84
2022/03/31 10:38:37;;;;;;;25.23;19.40;;;12.10;99.90;;;;;;5037559;28;20109;-83
2022/03/31 10:41:09;;;;;;;26.88;20.42;;;12.00;99.90;;;;;;5053535;28;20053;-82
2022/03/31 10:43:39;;;;;;;26.98;19.55;;;12.00;99.90;;;;;;5056841;28;20063;-81
2022/03/31 10:46:17;;;;;;;27.45;19.95;;;12.10;99.90;;;;;;5042231;28;20056;-81
2022/03/31 10:48:54;;;;;;;28.23;19.48;;;12.00;99.90;;;;;;5045272;28;20088;-74
2022/03/31 10:51:34;;;;;;;27.35;20.08;;;11.80;99.90;;;;;;5049499;28;20071;-83
2022/03/31 10:54:00;;;;;;;29.48;20.63;;;11.60;99.90;;;;;;5061714;28;20021;-81
2022/03/31 10:56:28;;;;;;;25.23;19.10;;;11.60;99.90;;;;;;5050032;28;20487;-82
2022/03/31 10:59:02;;;;;;;27.30;19.77;;;11.60;99.90;;;;;;5033313;28;20503;-82
2022/03/31 11:01:30;;;;;;;27.55;21.08;;;11.80;99.90;;;;;;5035402;28;20490;-83
2022/03/31 11:04:08;;;;;;;25.15;19.70;;;11.90;99.90;;;;;;5038687;28;20402;-84
2022/03/31 11:06:55;;;;;;;27.85;19.88;;;11.90;99.90;;;;;;5044177;28;20060;-81
2022/03/31 11:09:27;;;;;;;25.70;19.67;;;12.00;99.90;;;;;;5048788;28;20029;-85
2022/03/31 11:11:55;;;;;;;26.92;21.33;;;12.20;99.90;;;;;;5054676;28;20059;-85
2022/03/31 11:14:22;;;;;;;26.08;19.27;;;12.20;99.90;;;;;;5064079;28;20095;-83
2022/03/31 11:16:48;;;;;;;29.00;21.63;;;12.20;99.90;;;;;;5062366;28;20055;-73
2022/03/31 11:19:14;;;;;;;27.75;20.40;;;12.20;99.90;;;;;;5062640;28;20029;-85
2022/03/31 11:21:43;;;;;;;32.75;21.23;;;12.20;99.90;;;;;;5049089;28;20098;-83
2022/03/31 11:24:10;;;;;;;28.40;20.90;;;12.10;99.90;;;;;;5038792;28;20093;-84
2022/03/31 11:26:41;;;;;;;28.48;20.65;;;11.90;99.90;;;;;;5037291;28;20053;-83
2022/03/31 11:29:16;;;;;;;27.35;20.58;;;11.70;99.90;;;;;;5043586;28;20052;-83
2022/03/31 11:31:53;;;;;;;31.73;22.40;;;11.70;99.90;;;;;;5041113;28;20478;-83
2022/03/31 11:34:24;;;;;;;34.05;22.65;;;11.70;99.90;;;;;;5038789;28;20075;-83
2022/03/31 11:36:51;;;;;;;28.00;20.83;;;11.70;99.90;;;;;;5057864;28;20040;-72
2022/03/31 11:39:19;;;;;;;33.50;21.98;;;11.60;99.90;;;;;;5050199;28;20029;-84
2022/03/31 11:41:45;;;;;;;35.03;21.70;;;11.70;99.90;;;;;;5043560;28;20033;-75
2022/03/31 11:44:11;;;;;;;31.50;22.38;;;11.80;99.90;;;;;;5048701;28;20029;-83
2022/03/31 11:46:49;;;;;;;31.70;21.80;;;11.90;99.90;;;;;;5035788;28;20106;-83
2022/03/31 11:49:26;;;;;;;31.15;20.55;;;11.90;99.90;;;;;;5036269;28;20053;-83
2022/03/31 11:52:00;;;;;;;29.30;21.10;;;11.80;99.90;;;;;;5015954;28;20033;-83
2022/03/31 11:54:28;;;;;;;27.63;21.05;;;11.60;99.90;;;;;;5015285;28;20112;-84
2022/03/31 11:57:10;;;;;;;31.05;22.63;;;11.40;99.90;;;;;;5013901;28;20367;-83
2022/03/31 11:59:37;;;;;;;27.50;21.30;;;11.30;99.90;;;;;;5015799;28;20064;-81
2022/03/31 12:02:13;;;;;;;30.85;21.85;;;11.30;99.90;;;;;;5015948;28;20452;-83
2022/03/31 12:04:41;;;;;;;28.65;20.52;;;11.30;99.90;;;;;;5016076;28;20372;-82
2022/03/31 12:07:08;;;;;;;27.08;20.05;;;11.50;99.90;;;;;;4999368;28;20575;-85
2022/03/31 12:09:37;;;;;;;28.67;20.52;;;11.50;99.90;;;;;;5019391;28;20480;-84
2022/03/31 12:12:04;;;;;;;30.67;21.35;;;11.40;99.90;;;;;;4998871;28;20030;-84
2022/03/31 12:14:30;;;;;;;25.35;19.67;;;11.30;99.90;;;;;;5033573;28;20029;-82
2022/03/31 12:16:57;;;;;;;29.13;21.85;;;11.30;99.90;;;;;;5023615;28;20034;-83
2022/03/31 12:19:23;;;;;;;30.27;21.27;;;11.20;99.90;;;;;;5016114;28;20045;-82
2022/03/31 12:21:51;;;;;;;27.25;19.85;;;11.00;99.90;;;;;;5018791;28;20471;-75
2022/03/31 12:24:17;;;;;;;29.85;20.75;;;10.90;99.90;;;;;;5016045;28;20040;-84
2022/03/31 12:26:56;;;;;;;31.52;21.52;;;11.00;99.90;;;;;;5016198;28;20092;-83
2022/03/31 12:29:23;;;;;;;30.38;22.58;;;11.10;99.90;;;;;;5019255;28;20026;-83
2022/03/31 12:32:00;;;;;;;30.50;21.92;;;11.20;99.90;;;;;;5016543;28;20038;-75
2022/03/31 12:34:26;;;;;;;29.25;21.40;;;11.30;99.90;;;;;;5023056;28;20482;-83
2022/03/31 12:36:51;;;;;;;30.73;21.35;;;11.30;99.90;;;;;;5020130;28;20045;-74
2022/03/31 12:39:17;;;;;;;27.90;19.98;;;11.30;99.90;;;;;;5039089;28;20076;-82
2022/03/31 12:41:50;;;;;;;31.65;22.45;;;11.20;99.90;;;;;;5042879;28;20029;-83
2022/03/31 12:44:21;;;;;;;30.90;22.05;;;11.10;99.90;;;;;;5031477;28;20035;-83